sensor_id;sensor_type;location;lat;lon;timestamp;P1;durP1;ratioP1;P2;durP2;ratioP2
2011;SDS011;1009;51.436;6.972;2022-12-29T00:02:11;1.73;;;1.33;;
2011;SDS011;1009;51.436;6.972;2022-12-29T00:04:38;2.20;;;1.13;;
2011;SDS011;1009;51.436;6.972;2022-12-29T00:07:06;1.70;;;1.33;;
2011;SDS011;1009;51.436;6.972;2022-12-29T00:09:34;1.77;;;1.20;;
2011;SDS011;1009;51.436;6.972;2022-12-29T00:12:01;2.80;;;1.73;;
2011;SDS011;1009;51.436;6.972;2022-12-29T00:14:29;2.97;;;1.10;;
2011;SDS011;1009;51.436;6.972;2022-12-29T00:17:21;3.00;;;1.50;;
2011;SDS011;1009;51.436;6.972;2022-12-29T00:19:48;1.10;;;0.97;;
2011;SDS011;1009;51.436;6.972;2022-12-29T00:22:34;1.57;;;1.33;;
2011;SDS011;1009;51.436;6.972;2022-12-29T00:25:18;2.57;;;1.70;;
2011;SDS011;1009;51.436;6.972;2022-12-29T00:28:02;1.80;;;1.50;;
2011;SDS011;1009;51.436;6.972;2022-12-29T00:30:48;1.50;;;1.40;;
2011;SDS011;1009;51.436;6.972;2022-12-29T00:33:33;2.63;;;1.70;;
2011;SDS011;1009;51.436;6.972;2022-12-29T00:36:18;2.13;;;1.77;;
2011;SDS011;1009;51.436;6.972;2022-12-29T00:38:53;2.17;;;1.70;;
2011;SDS011;1009;51.436;6.972;2022-12-29T00:41:39;2.20;;;1.80;;
2011;SDS011;1009;51.436;6.972;2022-12-29T00:44:32;3.00;;;2.20;;
2011;SDS011;1009;51.436;6.972;2022-12-29T00:46:59;2.20;;;1.83;;
2011;SDS011;1009;51.436;6.972;2022-12-29T00:49:28;2.27;;;1.80;;
2011;SDS011;1009;51.436;6.972;2022-12-29T00:51:58;2.23;;;2.03;;
2011;SDS011;1009;51.436;6.972;2022-12-29T00:54:27;2.47;;;1.90;;
2011;SDS011;1009;51.436;6.972;2022-12-29T00:56:54;2.30;;;2.10;;
2011;SDS011;1009;51.436;6.972;2022-12-29T00:59:21;2.10;;;1.87;;
2011;SDS011;1009;51.436;6.972;2022-12-29T01:01:49;2.30;;;1.70;;
2011;SDS011;1009;51.436;6.972;2022-12-29T01:04:16;3.47;;;1.90;;
2011;SDS011;1009;51.436;6.972;2022-12-29T01:06:43;3.43;;;1.60;;
2011;SDS011;1009;51.436;6.972;2022-12-29T01:09:10;1.80;;;1.43;;
2011;SDS011;1009;51.436;6.972;2022-12-29T01:11:56;2.07;;;1.70;;
2011;SDS011;1009;51.436;6.972;2022-12-29T01:14:23;5.53;;;1.80;;
2011;SDS011;1009;51.436;6.972;2022-12-29T01:16:50;1.50;;;1.40;;
2011;SDS011;1009;51.436;6.972;2022-12-29T01:19:17;2.53;;;1.33;;
2011;SDS011;1009;51.436;6.972;2022-12-29T01:21:45;2.73;;;1.80;;
2011;SDS011;1009;51.436;6.972;2022-12-29T01:24:12;1.27;;;1.13;;
2011;SDS011;1009;51.436;6.972;2022-12-29T01:26:39;1.83;;;1.40;;
2011;SDS011;1009;51.436;6.972;2022-12-29T01:29:07;1.30;;;1.00;;
2011;SDS011;1009;51.436;6.972;2022-12-29T01:31:33;1.90;;;1.00;;
2011;SDS011;1009;51.436;6.972;2022-12-29T01:34:00;1.40;;;1.30;;
2011;SDS011;1009;51.436;6.972;2022-12-29T01:36:27;1.57;;;1.10;;
2011;SDS011;1009;51.436;6.972;2022-12-29T01:38:55;1.57;;;1.20;;
2011;SDS011;1009;51.436;6.972;2022-12-29T01:41:22;1.20;;;0.90;;
2011;SDS011;1009;51.436;6.972;2022-12-29T01:43:50;1.50;;;0.80;;
2011;SDS011;1009;51.436;6.972;2022-12-29T01:46:20;1.13;;;0.90;;
2011;SDS011;1009;51.436;6.972;2022-12-29T01:48:51;1.53;;;1.00;;
2011;SDS011;1009;51.436;6.972;2022-12-29T01:51:21;1.10;;;0.90;;
2011;SDS011;1009;51.436;6.972;2022-12-29T01:53:50;0.83;;;0.70;;
2011;SDS011;1009;51.436;6.972;2022-12-29T01:56:22;0.80;;;0.70;;
2011;SDS011;1009;51.436;6.972;2022-12-29T01:58:53;0.80;;;0.60;;
2011;SDS011;1009;51.436;6.972;2022-12-29T02:01:27;1.80;;;0.60;;
2011;SDS011;1009;51.436;6.972;2022-12-29T02:03:54;0.70;;;0.43;;
2011;SDS011;1009;51.436;6.972;2022-12-29T02:06:22;1.43;;;0.60;;
2011;SDS011;1009;51.436;6.972;2022-12-29T02:08:52;0.80;;;0.50;;
2011;SDS011;1009;51.436;6.972;2022-12-29T02:11:21;1.13;;;0.50;;
2011;SDS011;1009;51.436;6.972;2022-12-29T02:13:49;1.90;;;0.70;;
2011;SDS011;1009;51.436;6.972;2022-12-29T02:16:20;1.27;;;0.50;;
2011;SDS011;1009;51.436;6.972;2022-12-29T02:18:57;1.70;;;0.80;;
2011;SDS011;1009;51.436;6.972;2022-12-29T02:33:21;0.97;;;0.77;;
2011;SDS011;1009;51.436;6.972;2022-12-29T02:35:57;1.50;;;0.60;;
2011;SDS011;1009;51.436;6.972;2022-12-29T02:38:38;0.90;;;0.63;;
2011;SDS011;1009;51.436;6.972;2022-12-29T02:41:15;1.97;;;0.90;;
2011;SDS011;1009;51.436;6.972;2022-12-29T02:43:49;1.53;;;0.70;;
2011;SDS011;1009;51.436;6.972;2022-12-29T02:46:22;1.80;;;0.90;;
2011;SDS011;1009;51.436;6.972;2022-12-29T02:48:54;2.20;;;0.70;;
2011;SDS011;1009;51.436;6.972;2022-12-29T02:51:29;1.87;;;0.90;;
2011;SDS011;1009;51.436;6.972;2022-12-29T02:53:59;1.40;;;0.77;;
2011;SDS011;1009;51.436;6.972;2022-12-29T02:56:44;2.53;;;0.77;;
2011;SDS011;1009;51.436;6.972;2022-12-29T02:59:10;2.60;;;1.17;;
2011;SDS011;1009;51.436;6.972;2022-12-29T03:01:43;1.53;;;1.00;;
2011;SDS011;1009;51.436;6.972;2022-12-29T03:04:42;2.00;;;1.10;;
2011;SDS011;1009;51.436;6.972;2022-12-29T03:07:20;3.17;;;0.97;;
2011;SDS011;1009;51.436;6.972;2022-12-29T03:09:54;2.60;;;1.00;;
2011;SDS011;1009;51.436;6.972;2022-12-29T03:12:30;1.60;;;0.83;;
2011;SDS011;1009;51.436;6.972;2022-12-29T03:15:20;2.70;;;1.10;;
2011;SDS011;1009;51.436;6.972;2022-12-29T03:18:10;2.17;;;1.20;;
2011;SDS011;1009;51.436;6.972;2022-12-29T03:20:42;2.80;;;1.10;;
2011;SDS011;1009;51.436;6.972;2022-12-29T03:23:16;3.20;;;1.40;;
2011;SDS011;1009;51.436;6.972;2022-12-29T03:25:46;5.20;;;2.83;;
2011;SDS011;1009;51.436;6.972;2022-12-29T03:28:17;6.20;;;4.13;;
2011;SDS011;1009;51.436;6.972;2022-12-29T03:30:47;3.90;;;1.90;;
2011;SDS011;1009;51.436;6.972;2022-12-29T03:33:15;7.80;;;1.50;;
2011;SDS011;1009;51.436;6.972;2022-12-29T03:35:47;1.70;;;1.17;;
2011;SDS011;1009;51.436;6.972;2022-12-29T03:38:16;2.50;;;0.83;;
2011;SDS011;1009;51.436;6.972;2022-12-29T03:40:46;2.57;;;0.90;;
2011;SDS011;1009;51.436;6.972;2022-12-29T03:43:16;2.40;;;0.93;;
2011;SDS011;1009;51.436;6.972;2022-12-29T03:45:43;2.40;;;0.70;;
2011;SDS011;1009;51.436;6.972;2022-12-29T03:48:10;2.20;;;0.77;;
2011;SDS011;1009;51.436;6.972;2022-12-29T03:50:38;3.07;;;0.70;;
2011;SDS011;1009;51.436;6.972;2022-12-29T03:53:05;2.20;;;0.87;;
2011;SDS011;1009;51.436;6.972;2022-12-29T03:55:32;2.77;;;1.07;;
2011;SDS011;1009;51.436;6.972;2022-12-29T03:57:58;2.03;;;0.93;;
2011;SDS011;1009;51.436;6.972;2022-12-29T04:00:25;1.00;;;0.60;;
2011;SDS011;1009;51.436;6.972;2022-12-29T04:02:53;2.40;;;0.60;;
2011;SDS011;1009;51.436;6.972;2022-12-29T04:05:20;1.60;;;0.60;;
2011;SDS011;1009;51.436;6.972;2022-12-29T04:07:48;2.13;;;0.60;;
2011;SDS011;1009;51.436;6.972;2022-12-29T04:10:15;2.33;;;0.63;;
2011;SDS011;1009;51.436;6.972;2022-12-29T04:12:41;2.23;;;0.70;;
2011;SDS011;1009;51.436;6.972;2022-12-29T04:15:10;1.67;;;0.60;;
2011;SDS011;1009;51.436;6.972;2022-12-29T04:17:37;2.80;;;0.90;;
2011;SDS011;1009;51.436;6.972;2022-12-29T04:20:04;1.70;;;0.80;;
2011;SDS011;1009;51.436;6.972;2022-12-29T04:22:50;1.83;;;0.70;;
2011;SDS011;1009;51.436;6.972;2022-12-29T04:25:24;0.60;;;0.40;;
2011;SDS011;1009;51.436;6.972;2022-12-29T04:27:51;1.40;;;0.70;;
2011;SDS011;1009;51.436;6.972;2022-12-29T04:30:18;2.60;;;0.70;;
2011;SDS011;1009;51.436;6.972;2022-12-29T04:32:44;1.77;;;0.90;;
2011;SDS011;1009;51.436;6.972;2022-12-29T04:35:11;1.57;;;0.77;;
2011;SDS011;1009;51.436;6.972;2022-12-29T04:37:38;1.20;;;0.70;;
2011;SDS011;1009;51.436;6.972;2022-12-29T04:40:07;1.90;;;0.63;;
2011;SDS011;1009;51.436;6.972;2022-12-29T04:42:35;1.40;;;0.43;;
2011;SDS011;1009;51.436;6.972;2022-12-29T04:45:01;1.23;;;0.70;;
2011;SDS011;1009;51.436;6.972;2022-12-29T04:47:28;2.40;;;0.60;;
2011;SDS011;1009;51.436;6.972;2022-12-29T04:49:55;1.80;;;0.67;;
2011;SDS011;1009;51.436;6.972;2022-12-29T04:52:22;1.33;;;0.53;;
2011;SDS011;1009;51.436;6.972;2022-12-29T04:54:51;0.80;;;0.60;;
2011;SDS011;1009;51.436;6.972;2022-12-29T04:57:19;0.93;;;0.60;;
2011;SDS011;1009;51.436;6.972;2022-12-29T04:59:46;1.63;;;0.70;;
2011;SDS011;1009;51.436;6.972;2022-12-29T05:02:13;0.90;;;0.70;;
2011;SDS011;1009;51.436;6.972;2022-12-29T05:04:39;1.60;;;0.60;;
2011;SDS011;1009;51.436;6.972;2022-12-29T05:07:06;1.83;;;0.87;;
2011;SDS011;1009;51.436;6.972;2022-12-29T05:09:33;1.40;;;0.90;;
2011;SDS011;1009;51.436;6.972;2022-12-29T05:11:59;4.00;;;0.80;;
2011;SDS011;1009;51.436;6.972;2022-12-29T05:14:27;2.67;;;0.70;;
2011;SDS011;1009;51.436;6.972;2022-12-29T05:16:55;2.33;;;0.60;;
2011;SDS011;1009;51.436;6.972;2022-12-29T05:19:22;2.17;;;0.80;;
2011;SDS011;1009;51.436;6.972;2022-12-29T05:21:49;2.30;;;0.67;;
2011;SDS011;1009;51.436;6.972;2022-12-29T05:24:15;1.13;;;0.60;;
2011;SDS011;1009;51.436;6.972;2022-12-29T05:26:42;3.17;;;0.70;;
2011;SDS011;1009;51.436;6.972;2022-12-29T05:29:09;2.17;;;0.90;;
2011;SDS011;1009;51.436;6.972;2022-12-29T05:31:37;1.07;;;0.67;;
2011;SDS011;1009;51.436;6.972;2022-12-29T05:34:04;1.20;;;0.73;;
2011;SDS011;1009;51.436;6.972;2022-12-29T05:36:30;1.30;;;0.60;;
2011;SDS011;1009;51.436;6.972;2022-12-29T05:38:57;1.53;;;0.50;;
2011;SDS011;1009;51.436;6.972;2022-12-29T05:41:24;1.90;;;0.73;;
2011;SDS011;1009;51.436;6.972;2022-12-29T05:43:50;1.47;;;0.60;;
2011;SDS011;1009;51.436;6.972;2022-12-29T05:46:17;2.50;;;0.83;;
2011;SDS011;1009;51.436;6.972;2022-12-29T05:48:45;1.90;;;0.83;;
2011;SDS011;1009;51.436;6.972;2022-12-29T05:51:12;1.40;;;1.00;;
2011;SDS011;1009;51.436;6.972;2022-12-29T05:53:39;1.57;;;0.80;;
2011;SDS011;1009;51.436;6.972;2022-12-29T05:56:06;1.87;;;0.90;;
2011;SDS011;1009;51.436;6.972;2022-12-29T05:58:35;2.20;;;0.77;;
2011;SDS011;1009;51.436;6.972;2022-12-29T06:01:02;1.70;;;1.10;;
2011;SDS011;1009;51.436;6.972;2022-12-29T06:03:29;2.40;;;0.90;;
2011;SDS011;1009;51.436;6.972;2022-12-29T06:06:06;1.73;;;0.90;;
2011;SDS011;1009;51.436;6.972;2022-12-29T06:08:33;2.80;;;1.10;;
2011;SDS011;1009;51.436;6.972;2022-12-29T06:11:00;2.70;;;0.83;;
2011;SDS011;1009;51.436;6.972;2022-12-29T06:13:38;1.33;;;1.03;;
2011;SDS011;1009;51.436;6.972;2022-12-29T06:16:06;3.10;;;1.40;;
2011;SDS011;1009;51.436;6.972;2022-12-29T06:18:38;2.10;;;0.90;;
2011;SDS011;1009;51.436;6.972;2022-12-29T06:21:06;3.67;;;1.47;;
2011;SDS011;1009;51.436;6.972;2022-12-29T06:23:33;3.07;;;0.80;;
2011;SDS011;1009;51.436;6.972;2022-12-29T06:26:00;1.60;;;1.23;;
2011;SDS011;1009;51.436;6.972;2022-12-29T06:28:33;1.33;;;0.83;;
2011;SDS011;1009;51.436;6.972;2022-12-29T06:30:59;1.90;;;0.90;;
2011;SDS011;1009;51.436;6.972;2022-12-29T06:33:28;1.73;;;0.90;;
2011;SDS011;1009;51.436;6.972;2022-12-29T06:35:55;1.63;;;1.00;;
2011;SDS011;1009;51.436;6.972;2022-12-29T06:38:32;2.60;;;1.10;;
2011;SDS011;1009;51.436;6.972;2022-12-29T06:41:00;1.53;;;0.60;;
2011;SDS011;1009;51.436;6.972;2022-12-29T06:43:26;2.97;;;1.10;;
2011;SDS011;1009;51.436;6.972;2022-12-29T06:45:55;3.50;;;0.83;;
2011;SDS011;1009;51.436;6.972;2022-12-29T06:48:25;3.10;;;1.00;;
2011;SDS011;1009;51.436;6.972;2022-12-29T06:50:51;2.40;;;0.70;;
2011;SDS011;1009;51.436;6.972;2022-12-29T06:53:18;3.20;;;1.00;;
2011;SDS011;1009;51.436;6.972;2022-12-29T06:55:49;1.53;;;0.70;;
2011;SDS011;1009;51.436;6.972;2022-12-29T06:58:15;2.27;;;0.83;;
2011;SDS011;1009;51.436;6.972;2022-12-29T07:00:42;3.03;;;0.80;;
2011;SDS011;1009;51.436;6.972;2022-12-29T07:03:09;2.40;;;0.70;;
2011;SDS011;1009;51.436;6.972;2022-12-29T07:05:36;3.60;;;1.50;;
2011;SDS011;1009;51.436;6.972;2022-12-29T07:08:02;2.67;;;0.90;;
2011;SDS011;1009;51.436;6.972;2022-12-29T07:10:29;2.70;;;0.90;;
2011;SDS011;1009;51.436;6.972;2022-12-29T07:12:57;4.90;;;1.10;;
2011;SDS011;1009;51.436;6.972;2022-12-29T07:15:24;3.53;;;1.30;;
2011;SDS011;1009;51.436;6.972;2022-12-29T07:17:51;2.87;;;1.00;;
2011;SDS011;1009;51.436;6.972;2022-12-29T07:20:18;3.77;;;0.80;;
2011;SDS011;1009;51.436;6.972;2022-12-29T07:22:44;3.00;;;0.83;;
2011;SDS011;1009;51.436;6.972;2022-12-29T07:25:12;2.00;;;1.30;;
2011;SDS011;1009;51.436;6.972;2022-12-29T07:27:39;4.50;;;1.30;;
2011;SDS011;1009;51.436;6.972;2022-12-29T07:30:08;2.80;;;0.70;;
2011;SDS011;1009;51.436;6.972;2022-12-29T07:32:35;1.57;;;0.70;;
2011;SDS011;1009;51.436;6.972;2022-12-29T07:35:02;6.90;;;0.97;;
2011;SDS011;1009;51.436;6.972;2022-12-29T07:37:29;2.30;;;0.93;;
2011;SDS011;1009;51.436;6.972;2022-12-29T07:39:55;1.17;;;0.83;;
2011;SDS011;1009;51.436;6.972;2022-12-29T07:42:22;2.10;;;0.70;;
2011;SDS011;1009;51.436;6.972;2022-12-29T07:44:49;2.20;;;0.80;;
2011;SDS011;1009;51.436;6.972;2022-12-29T07:47:17;2.57;;;1.00;;
2011;SDS011;1009;51.436;6.972;2022-12-29T07:49:43;2.40;;;0.80;;
2011;SDS011;1009;51.436;6.972;2022-12-29T07:52:10;3.77;;;1.10;;
2011;SDS011;1009;51.436;6.972;2022-12-29T07:54:37;6.37;;;1.00;;
2011;SDS011;1009;51.436;6.972;2022-12-29T07:57:04;6.77;;;1.10;;
2011;SDS011;1009;51.436;6.972;2022-12-29T07:59:31;4.93;;;0.87;;
2011;SDS011;1009;51.436;6.972;2022-12-29T08:02:01;6.00;;;1.03;;
2011;SDS011;1009;51.436;6.972;2022-12-29T08:04:29;3.50;;;1.13;;
2011;SDS011;1009;51.436;6.972;2022-12-29T08:06:56;8.00;;;1.00;;
2011;SDS011;1009;51.436;6.972;2022-12-29T08:09:22;2.70;;;1.10;;
2011;SDS011;1009;51.436;6.972;2022-12-29T08:11:49;6.30;;;1.20;;
2011;SDS011;1009;51.436;6.972;2022-12-29T08:14:16;3.77;;;0.97;;
2011;SDS011;1009;51.436;6.972;2022-12-29T08:16:43;3.30;;;1.20;;
2011;SDS011;1009;51.436;6.972;2022-12-29T08:19:10;6.27;;;1.40;;
2011;SDS011;1009;51.436;6.972;2022-12-29T08:21:38;4.00;;;1.13;;
2011;SDS011;1009;51.436;6.972;2022-12-29T08:24:05;4.20;;;1.00;;
2011;SDS011;1009;51.436;6.972;2022-12-29T08:26:34;3.50;;;1.30;;
2011;SDS011;1009;51.436;6.972;2022-12-29T08:29:01;3.73;;;0.90;;
2011;SDS011;1009;51.436;6.972;2022-12-29T08:31:28;2.07;;;1.03;;
2011;SDS011;1009;51.436;6.972;2022-12-29T08:33:55;6.87;;;1.10;;
2011;SDS011;1009;51.436;6.972;2022-12-29T08:36:24;5.70;;;1.13;;
2011;SDS011;1009;51.436;6.972;2022-12-29T08:38:52;3.00;;;0.87;;
2011;SDS011;1009;51.436;6.972;2022-12-29T08:41:19;5.57;;;1.47;;
2011;SDS011;1009;51.436;6.972;2022-12-29T08:43:46;7.60;;;1.37;;
2011;SDS011;1009;51.436;6.972;2022-12-29T08:46:13;3.43;;;0.87;;
2011;SDS011;1009;51.436;6.972;2022-12-29T08:48:46;5.70;;;1.07;;
2011;SDS011;1009;51.436;6.972;2022-12-29T08:51:12;4.93;;;1.03;;
2011;SDS011;1009;51.436;6.972;2022-12-29T08:53:40;7.90;;;1.53;;
2011;SDS011;1009;51.436;6.972;2022-12-29T08:56:09;13.37;;;1.23;;
2011;SDS011;1009;51.436;6.972;2022-12-29T08:58:36;4.57;;;1.60;;
2011;SDS011;1009;51.436;6.972;2022-12-29T09:01:03;5.63;;;1.90;;
2011;SDS011;1009;51.436;6.972;2022-12-29T09:03:30;8.83;;;1.20;;
2011;SDS011;1009;51.436;6.972;2022-12-29T09:05:57;4.90;;;1.47;;
2011;SDS011;1009;51.436;6.972;2022-12-29T09:08:23;3.67;;;1.30;;
2011;SDS011;1009;51.436;6.972;2022-12-29T09:10:50;2.20;;;1.10;;
2011;SDS011;1009;51.436;6.972;2022-12-29T09:13:18;3.70;;;1.20;;
2011;SDS011;1009;51.436;6.972;2022-12-29T09:15:45;4.80;;;1.27;;
2011;SDS011;1009;51.436;6.972;2022-12-29T09:18:12;7.67;;;1.60;;
2011;SDS011;1009;51.436;6.972;2022-12-29T09:20:38;6.57;;;1.17;;
2011;SDS011;1009;51.436;6.972;2022-12-29T09:23:05;3.20;;;1.40;;
2011;SDS011;1009;51.436;6.972;2022-12-29T09:25:32;3.07;;;1.10;;
2011;SDS011;1009;51.436;6.972;2022-12-29T09:27:59;5.93;;;1.50;;
2011;SDS011;1009;51.436;6.972;2022-12-29T09:30:30;4.17;;;1.00;;
2011;SDS011;1009;51.436;6.972;2022-12-29T09:32:57;5.43;;;1.40;;
2011;SDS011;1009;51.436;6.972;2022-12-29T09:35:24;10.63;;;1.87;;
2011;SDS011;1009;51.436;6.972;2022-12-29T09:37:50;2.63;;;1.40;;
2011;SDS011;1009;51.436;6.972;2022-12-29T09:40:25;4.40;;;0.93;;
2011;SDS011;1009;51.436;6.972;2022-12-29T09:45:44;3.20;;;1.53;;
2011;SDS011;1009;51.436;6.972;2022-12-29T09:48:14;3.80;;;1.23;;
2011;SDS011;1009;51.436;6.972;2022-12-29T09:50:47;3.13;;;1.33;;
2011;SDS011;1009;51.436;6.972;2022-12-29T09:53:17;5.23;;;1.20;;
2011;SDS011;1009;51.436;6.972;2022-12-29T09:55:52;7.03;;;1.50;;
2011;SDS011;1009;51.436;6.972;2022-12-29T09:58:21;4.90;;;1.20;;
2011;SDS011;1009;51.436;6.972;2022-12-29T10:00:59;3.27;;;1.13;;
2011;SDS011;1009;51.436;6.972;2022-12-29T10:03:32;4.40;;;1.40;;
2011;SDS011;1009;51.436;6.972;2022-12-29T10:06:11;5.77;;;1.10;;
2011;SDS011;1009;51.436;6.972;2022-12-29T10:08:42;6.43;;;1.57;;
2011;SDS011;1009;51.436;6.972;2022-12-29T10:11:16;7.87;;;1.50;;
2011;SDS011;1009;51.436;6.972;2022-12-29T10:14:00;6.87;;;1.50;;
2011;SDS011;1009;51.436;6.972;2022-12-29T10:16:44;3.93;;;1.37;;
2011;SDS011;1009;51.436;6.972;2022-12-29T10:19:22;6.73;;;1.20;;
2011;SDS011;1009;51.436;6.972;2022-12-29T10:22:14;5.20;;;1.47;;
2011;SDS011;1009;51.436;6.972;2022-12-29T10:24:54;4.60;;;1.40;;
2011;SDS011;1009;51.436;6.972;2022-12-29T10:27:22;5.00;;;1.30;;
2011;SDS011;1009;51.436;6.972;2022-12-29T10:29:51;6.03;;;1.50;;
2011;SDS011;1009;51.436;6.972;2022-12-29T10:32:27;6.23;;;2.00;;
2011;SDS011;1009;51.436;6.972;2022-12-29T10:34:58;3.97;;;1.50;;
2011;SDS011;1009;51.436;6.972;2022-12-29T10:37:30;5.27;;;1.10;;
2011;SDS011;1009;51.436;6.972;2022-12-29T10:40:12;11.63;;;1.73;;
2011;SDS011;1009;51.436;6.972;2022-12-29T10:42:45;3.33;;;1.30;;
2011;SDS011;1009;51.436;6.972;2022-12-29T10:45:16;8.70;;;1.67;;
2011;SDS011;1009;51.436;6.972;2022-12-29T10:47:50;6.73;;;1.70;;
2011;SDS011;1009;51.436;6.972;2022-12-29T10:50:19;7.10;;;1.20;;
2011;SDS011;1009;51.436;6.972;2022-12-29T10:52:47;6.43;;;2.17;;
2011;SDS011;1009;51.436;6.972;2022-12-29T10:55:15;5.00;;;1.30;;
2011;SDS011;1009;51.436;6.972;2022-12-29T10:57:45;6.93;;;2.27;;
2011;SDS011;1009;51.436;6.972;2022-12-29T11:00:14;5.27;;;1.50;;
2011;SDS011;1009;51.436;6.972;2022-12-29T11:02:56;8.53;;;1.30;;
2011;SDS011;1009;51.436;6.972;2022-12-29T11:05:35;8.03;;;1.27;;
2011;SDS011;1009;51.436;6.972;2022-12-29T11:08:08;3.93;;;1.47;;
2011;SDS011;1009;51.436;6.972;2022-12-29T11:10:39;5.80;;;1.47;;
2011;SDS011;1009;51.436;6.972;2022-12-29T11:13:11;8.10;;;1.10;;
2011;SDS011;1009;51.436;6.972;2022-12-29T11:15:39;5.10;;;1.33;;
2011;SDS011;1009;51.436;6.972;2022-12-29T11:18:18;4.30;;;1.20;;
2011;SDS011;1009;51.436;6.972;2022-12-29T11:20:50;4.70;;;1.30;;
2011;SDS011;1009;51.436;6.972;2022-12-29T11:23:23;3.60;;;1.20;;
2011;SDS011;1009;51.436;6.972;2022-12-29T11:29:03;9.13;;;1.70;;
2011;SDS011;1009;51.436;6.972;2022-12-29T11:31:46;10.60;;;1.90;;
2011;SDS011;1009;51.436;6.972;2022-12-29T11:34:19;7.80;;;1.33;;
2011;SDS011;1009;51.436;6.972;2022-12-29T11:36:47;9.03;;;1.67;;
2011;SDS011;1009;51.436;6.972;2022-12-29T11:39:30;6.60;;;1.60;;
2011;SDS011;1009;51.436;6.972;2022-12-29T11:41:59;6.33;;;1.30;;
2011;SDS011;1009;51.436;6.972;2022-12-29T11:44:28;7.57;;;1.40;;
2011;SDS011;1009;51.436;6.972;2022-12-29T11:47:03;14.93;;;1.93;;
2011;SDS011;1009;51.436;6.972;2022-12-29T11:49:32;7.80;;;1.43;;
2011;SDS011;1009;51.436;6.972;2022-12-29T11:51:59;6.80;;;1.50;;
2011;SDS011;1009;51.436;6.972;2022-12-29T11:54:27;8.53;;;1.17;;
2011;SDS011;1009;51.436;6.972;2022-12-29T11:56:57;6.03;;;1.50;;
2011;SDS011;1009;51.436;6.972;2022-12-29T11:59:34;4.10;;;1.77;;
2011;SDS011;1009;51.436;6.972;2022-12-29T12:02:19;4.97;;;1.30;;
2011;SDS011;1009;51.436;6.972;2022-12-29T12:04:56;9.17;;;1.57;;
2011;SDS011;1009;51.436;6.972;2022-12-29T12:07:33;6.57;;;1.40;;
2011;SDS011;1009;51.436;6.972;2022-12-29T12:10:05;8.27;;;1.80;;
2011;SDS011;1009;51.436;6.972;2022-12-29T12:12:38;5.50;;;1.73;;
2011;SDS011;1009;51.436;6.972;2022-12-29T12:15:13;5.87;;;1.37;;
2011;SDS011;1009;51.436;6.972;2022-12-29T12:17:46;2.70;;;1.40;;
2011;SDS011;1009;51.436;6.972;2022-12-29T12:20:18;7.73;;;1.40;;
2011;SDS011;1009;51.436;6.972;2022-12-29T12:22:50;2.30;;;0.90;;
2011;SDS011;1009;51.436;6.972;2022-12-29T12:25:25;4.83;;;1.17;;
2011;SDS011;1009;51.436;6.972;2022-12-29T12:27:59;4.50;;;1.43;;
2011;SDS011;1009;51.436;6.972;2022-12-29T12:30:33;5.17;;;1.33;;
2011;SDS011;1009;51.436;6.972;2022-12-29T12:33:10;7.80;;;2.00;;
2011;SDS011;1009;51.436;6.972;2022-12-29T12:35:48;3.57;;;1.17;;
2011;SDS011;1009;51.436;6.972;2022-12-29T12:38:33;4.63;;;1.67;;
2011;SDS011;1009;51.436;6.972;2022-12-29T12:41:07;8.40;;;1.37;;
2011;SDS011;1009;51.436;6.972;2022-12-29T12:43:39;4.97;;;1.10;;
2011;SDS011;1009;51.436;6.972;2022-12-29T12:46:18;5.70;;;1.73;;
2011;SDS011;1009;51.436;6.972;2022-12-29T12:49:01;8.07;;;1.97;;
2011;SDS011;1009;51.436;6.972;2022-12-29T12:51:49;4.93;;;1.70;;
2011;SDS011;1009;51.436;6.972;2022-12-29T12:54:28;4.47;;;1.20;;
2011;SDS011;1009;51.436;6.972;2022-12-29T12:57:09;5.90;;;1.37;;
2011;SDS011;1009;51.436;6.972;2022-12-29T12:59:46;5.40;;;1.47;;
2011;SDS011;1009;51.436;6.972;2022-12-29T13:02:26;8.17;;;1.50;;
2011;SDS011;1009;51.436;6.972;2022-12-29T13:05:10;6.97;;;1.60;;
2011;SDS011;1009;51.436;6.972;2022-12-29T13:07:53;4.23;;;1.03;;
2011;SDS011;1009;51.436;6.972;2022-12-29T13:10:37;6.37;;;1.57;;
2011;SDS011;1009;51.436;6.972;2022-12-29T13:13:14;9.43;;;1.70;;
2011;SDS011;1009;51.436;6.972;2022-12-29T13:15:55;9.33;;;1.57;;
2011;SDS011;1009;51.436;6.972;2022-12-29T13:18:27;9.50;;;1.60;;
2011;SDS011;1009;51.436;6.972;2022-12-29T13:21:02;6.57;;;1.43;;
2011;SDS011;1009;51.436;6.972;2022-12-29T13:23:36;9.53;;;2.33;;
2011;SDS011;1009;51.436;6.972;2022-12-29T13:26:11;5.67;;;1.50;;
2011;SDS011;1009;51.436;6.972;2022-12-29T13:28:43;8.20;;;1.43;;
2011;SDS011;1009;51.436;6.972;2022-12-29T13:31:20;7.03;;;1.80;;
2011;SDS011;1009;51.436;6.972;2022-12-29T13:33:58;4.13;;;1.37;;
2011;SDS011;1009;51.436;6.972;2022-12-29T13:36:31;8.23;;;1.67;;
2011;SDS011;1009;51.436;6.972;2022-12-29T13:39:04;5.63;;;1.67;;
2011;SDS011;1009;51.436;6.972;2022-12-29T13:41:37;8.10;;;1.90;;
2011;SDS011;1009;51.436;6.972;2022-12-29T13:44:09;4.63;;;1.80;;
2011;SDS011;1009;51.436;6.972;2022-12-29T13:46:42;5.60;;;1.50;;
2011;SDS011;1009;51.436;6.972;2022-12-29T13:49:12;7.60;;;2.23;;
2011;SDS011;1009;51.436;6.972;2022-12-29T13:51:43;13.20;;;2.47;;
2011;SDS011;1009;51.436;6.972;2022-12-29T13:54:21;3.43;;;1.50;;
2011;SDS011;1009;51.436;6.972;2022-12-29T13:56:59;5.63;;;1.47;;
2011;SDS011;1009;51.436;6.972;2022-12-29T13:59:35;5.00;;;1.50;;
2011;SDS011;1009;51.436;6.972;2022-12-29T14:02:09;5.10;;;1.57;;
2011;SDS011;1009;51.436;6.972;2022-12-29T14:04:54;3.30;;;1.20;;
2011;SDS011;1009;51.436;6.972;2022-12-29T14:07:23;5.40;;;1.37;;
2011;SDS011;1009;51.436;6.972;2022-12-29T14:09:51;9.80;;;1.70;;
2011;SDS011;1009;51.436;6.972;2022-12-29T14:12:21;11.70;;;2.00;;
2011;SDS011;1009;51.436;6.972;2022-12-29T14:14:54;5.23;;;1.20;;
2011;SDS011;1009;51.436;6.972;2022-12-29T14:17:29;8.90;;;1.73;;
2011;SDS011;1009;51.436;6.972;2022-12-29T14:19:56;4.70;;;1.57;;
2011;SDS011;1009;51.436;6.972;2022-12-29T14:22:23;8.50;;;1.70;;
2011;SDS011;1009;51.436;6.972;2022-12-29T14:24:52;6.37;;;1.50;;
2011;SDS011;1009;51.436;6.972;2022-12-29T14:33:15;12.03;;;2.60;;
2011;SDS011;1009;51.436;6.972;2022-12-29T14:35:43;3.30;;;1.40;;
2011;SDS011;1009;51.436;6.972;2022-12-29T14:38:18;3.47;;;1.30;;
2011;SDS011;1009;51.436;6.972;2022-12-29T14:40:52;3.17;;;1.33;;
2011;SDS011;1009;51.436;6.972;2022-12-29T14:43:39;4.83;;;1.50;;
2011;SDS011;1009;51.436;6.972;2022-12-29T14:46:06;8.90;;;1.97;;
2011;SDS011;1009;51.436;6.972;2022-12-29T14:48:36;3.63;;;1.27;;
2011;SDS011;1009;51.436;6.972;2022-12-29T14:51:31;8.93;;;1.63;;
2011;SDS011;1009;51.436;6.972;2022-12-29T14:54:00;6.70;;;1.63;;
2011;SDS011;1009;51.436;6.972;2022-12-29T14:57:08;4.30;;;1.33;;
2011;SDS011;1009;51.436;6.972;2022-12-29T14:59:43;6.63;;;1.50;;
2011;SDS011;1009;51.436;6.972;2022-12-29T15:02:13;2.80;;;1.17;;
2011;SDS011;1009;51.436;6.972;2022-12-29T15:04:43;8.87;;;1.90;;
2011;SDS011;1009;51.436;6.972;2022-12-29T15:07:12;4.77;;;1.47;;
2011;SDS011;1009;51.436;6.972;2022-12-29T15:09:45;2.43;;;0.93;;
2011;SDS011;1009;51.436;6.972;2022-12-29T15:12:21;7.87;;;1.67;;
2011;SDS011;1009;51.436;6.972;2022-12-29T15:15:00;3.63;;;1.17;;
2011;SDS011;1009;51.436;6.972;2022-12-29T15:17:28;3.07;;;1.30;;
2011;SDS011;1009;51.436;6.972;2022-12-29T15:19:56;3.87;;;1.50;;
2011;SDS011;1009;51.436;6.972;2022-12-29T15:22:23;7.63;;;1.77;;
2011;SDS011;1009;51.436;6.972;2022-12-29T15:24:51;8.53;;;1.93;;
2011;SDS011;1009;51.436;6.972;2022-12-29T15:27:21;3.87;;;1.50;;
2011;SDS011;1009;51.436;6.972;2022-12-29T15:29:55;7.07;;;1.30;;
2011;SDS011;1009;51.436;6.972;2022-12-29T15:32:23;4.83;;;1.23;;
2011;SDS011;1009;51.436;6.972;2022-12-29T15:34:52;6.10;;;1.70;;
2011;SDS011;1009;51.436;6.972;2022-12-29T15:37:21;4.77;;;2.10;;
2011;SDS011;1009;51.436;6.972;2022-12-29T15:39:50;7.57;;;1.70;;
2011;SDS011;1009;51.436;6.972;2022-12-29T15:42:23;5.20;;;1.60;;
2011;SDS011;1009;51.436;6.972;2022-12-29T15:45:02;5.53;;;2.10;;
2011;SDS011;1009;51.436;6.972;2022-12-29T15:47:30;4.70;;;1.40;;
2011;SDS011;1009;51.436;6.972;2022-12-29T15:49:59;2.67;;;1.20;;
2011;SDS011;1009;51.436;6.972;2022-12-29T15:52:30;8.83;;;1.70;;
2011;SDS011;1009;51.436;6.972;2022-12-29T15:54:59;4.97;;;1.33;;
2011;SDS011;1009;51.436;6.972;2022-12-29T15:57:29;9.20;;;1.67;;
2011;SDS011;1009;51.436;6.972;2022-12-29T15:59:58;7.83;;;1.60;;
2011;SDS011;1009;51.436;6.972;2022-12-29T16:02:26;5.97;;;1.77;;
2011;SDS011;1009;51.436;6.972;2022-12-29T16:04:54;7.40;;;1.80;;